Cowen, West Virginia
Current Conditions -  °F | °C
As of 7:15 PM on Monday 20 Oct 2014 (Local Time) from KLWB Reporting Station
Scattered Clouds Scattered Clouds  
Wind Chill: 12°   Ceiling: Unl
Heat Index: 12°   Visibility: 10mi
Dew Point:   Wind: 5mph
Humidity: 69%   Direction: 210°SSW
Pressure: 29.98"   Gusts: NA
Location:  38.41°N, 80.56°W
Report Text: KLWB 202315Z AUTO 21004KT 10SM SCT070 SCT080 SCT120 12/06 A2998 RMK AO2 T01200064
Loading
Personal Weather Stations






























Interactive Weather Map
Tropical Storm Tracking
New forecast layout! Learn more

10-Day Weather Forecast

Advertisements
Track Severe Weather on mobile